Togiak Airport
PATG : now visible

Aeroporto :











RITROVATECI SU...

 
LOGIN :

Iscrizione | Disclaimer

   EN    FR    IT 

 









Sommario :    VFR   VFR Marginale   IFR   IFR Intensivo   IFR Molto Intensivo
Visibilità : 
Base nubi : 
>= 8 km
>= 3000ft
5 / 8 km
1000 / 3000 ft
1500m / 5 km
500 / 1000 ft
800 / 1500m
200 / 500 ft
< 800m
< 200 ft
Simboli :   Temporali  Nebbia  Neve Forte  Precipitazioni Forti  Vento > 20 kt






- Altitudine del aeroporto : 21 ft
- Codice IATA : TOG


PATG - Togiak

ULTIMO METAR :
  • 091256Z AUTO 36008KT 3SM -SN BR BKN010 OVC019 M06/M07 A3033 RMK AO2 UPB04E53SNE04B53 SLP370 P0000 T10561067 FZRANO

METARs OBSOLETI :
  • 091156Z AUTO 35007KT 10SM -SN OVC012 M06/M07 A3033 RMK AO2 UPE1059B35E55SNB01E35B55 SLP369 P0000 60000 T10561072 11056 21078 52009 FZRANO
  • 091056Z AUTO 35007KT 10SM UP OVC012 M06/M07 A3032 RMK AO2 UPB12E30B46SNE12B17E26B36E46 SLP366 P0000 T10561072 FZRANO

TAF N/A



MetMap, La meteo Aeronautica in un colpo d'occhio ! - Copyright ORBIFLY Dicembre 2007 - Disclaimer

ORBIFLY MET'MAP TEAM :

Programmazione e sviluppo : Alexandra Zaïnal
Concezione : Baudouin d'Aumeries
Aiuto per la programmazione : Marc-Olivier Méhu
Supporto tecnico e logistico : Manuel Goepfert
Aiuto per la traduzione : Arnaldo La Scala

Contatto : metmap@orbifly.com




FONTI E CREDITI :

   NOAA       Earth
Advisory